sensor_id;sensor_type;location;lat;lon;timestamp;P1;durP1;ratioP1;P2;durP2;ratioP2
10479;SDS011;12789;42.610;23.040;2024-03-06T00:02:20;26.70;;;15.33;;
10479;SDS011;12789;42.610;23.040;2024-03-06T00:04:47;30.53;;;16.37;;
10479;SDS011;12789;42.610;23.040;2024-03-06T00:07:14;27.27;;;15.80;;
10479;SDS011;12789;42.610;23.040;2024-03-06T00:09:41;30.60;;;17.07;;
10479;SDS011;12789;42.610;23.040;2024-03-06T00:12:07;27.67;;;15.13;;
10479;SDS011;12789;42.610;23.040;2024-03-06T00:14:34;23.00;;;13.03;;
10479;SDS011;12789;42.610;23.040;2024-03-06T00:17:02;26.50;;;14.63;;
10479;SDS011;12789;42.610;23.040;2024-03-06T00:19:31;24.40;;;15.13;;
10479;SDS011;12789;42.610;23.040;2024-03-06T00:21:57;19.53;;;13.67;;
10479;SDS011;12789;42.610;23.040;2024-03-06T00:24:24;23.90;;;14.07;;
10479;SDS011;12789;42.610;23.040;2024-03-06T00:26:51;25.20;;;15.07;;
10479;SDS011;12789;42.610;23.040;2024-03-06T00:29:17;27.03;;;14.37;;
10479;SDS011;12789;42.610;23.040;2024-03-06T00:31:45;26.00;;;13.93;;
10479;SDS011;12789;42.610;23.040;2024-03-06T00:34:12;26.70;;;13.83;;
10479;SDS011;12789;42.610;23.040;2024-03-06T00:36:40;24.90;;;13.67;;
10479;SDS011;12789;42.610;23.040;2024-03-06T00:39:07;30.23;;;15.67;;
10479;SDS011;12789;42.610;23.040;2024-03-06T00:41:34;33.30;;;16.57;;
10479;SDS011;12789;42.610;23.040;2024-03-06T00:44:00;28.87;;;15.83;;
10479;SDS011;12789;42.610;23.040;2024-03-06T00:46:27;27.60;;;15.13;;
10479;SDS011;12789;42.610;23.040;2024-03-06T00:48:53;27.73;;;15.30;;
10479;SDS011;12789;42.610;23.040;2024-03-06T00:51:20;27.43;;;15.43;;
10479;SDS011;12789;42.610;23.040;2024-03-06T00:53:48;28.30;;;15.23;;
10479;SDS011;12789;42.610;23.040;2024-03-06T00:56:14;27.80;;;15.67;;
10479;SDS011;12789;42.610;23.040;2024-03-06T00:58:41;23.97;;;14.03;;
10479;SDS011;12789;42.610;23.040;2024-03-06T01:01:07;26.10;;;14.63;;
10479;SDS011;12789;42.610;23.040;2024-03-06T01:03:34;28.37;;;15.50;;
10479;SDS011;12789;42.610;23.040;2024-03-06T01:06:01;33.77;;;17.27;;
10479;SDS011;12789;42.610;23.040;2024-03-06T01:08:28;34.30;;;17.70;;
10479;SDS011;12789;42.610;23.040;2024-03-06T01:10:57;30.87;;;17.13;;
10479;SDS011;12789;42.610;23.040;2024-03-06T01:13:23;34.40;;;16.93;;
10479;SDS011;12789;42.610;23.040;2024-03-06T01:15:50;32.83;;;16.53;;
10479;SDS011;12789;42.610;23.040;2024-03-06T01:18:16;27.70;;;16.80;;
10479;SDS011;12789;42.610;23.040;2024-03-06T01:20:43;28.10;;;16.80;;
10479;SDS011;12789;42.610;23.040;2024-03-06T01:23:10;29.13;;;16.77;;
10479;SDS011;12789;42.610;23.040;2024-03-06T01:25:36;29.83;;;17.13;;
10479;SDS011;12789;42.610;23.040;2024-03-06T01:28:05;30.23;;;16.43;;
10479;SDS011;12789;42.610;23.040;2024-03-06T01:30:31;30.77;;;16.60;;
10479;SDS011;12789;42.610;23.040;2024-03-06T01:32:58;38.30;;;17.50;;
10479;SDS011;12789;42.610;23.040;2024-03-06T01:35:24;33.23;;;17.67;;
10479;SDS011;12789;42.610;23.040;2024-03-06T01:37:51;35.03;;;18.33;;
10479;SDS011;12789;42.610;23.040;2024-03-06T01:40:17;33.47;;;16.50;;
10479;SDS011;12789;42.610;23.040;2024-03-06T01:42:45;33.63;;;17.07;;
10479;SDS011;12789;42.610;23.040;2024-03-06T01:45:14;31.60;;;17.20;;
10479;SDS011;12789;42.610;23.040;2024-03-06T01:47:40;31.53;;;16.07;;
10479;SDS011;12789;42.610;23.040;2024-03-06T01:50:07;31.03;;;16.33;;
10479;SDS011;12789;42.610;23.040;2024-03-06T01:52:35;35.43;;;16.20;;
10479;SDS011;12789;42.610;23.040;2024-03-06T01:55:02;36.03;;;16.83;;
10479;SDS011;12789;42.610;23.040;2024-03-06T01:57:30;34.03;;;17.00;;
10479;SDS011;12789;42.610;23.040;2024-03-06T01:59:57;31.40;;;16.07;;
10479;SDS011;12789;42.610;23.040;2024-03-06T02:02:25;33.00;;;16.10;;
10479;SDS011;12789;42.610;23.040;2024-03-06T02:04:52;38.80;;;16.57;;
10479;SDS011;12789;42.610;23.040;2024-03-06T02:07:19;30.07;;;16.20;;
10479;SDS011;12789;42.610;23.040;2024-03-06T02:09:46;33.77;;;15.83;;
10479;SDS011;12789;42.610;23.040;2024-03-06T02:12:14;26.43;;;15.83;;
10479;SDS011;12789;42.610;23.040;2024-03-06T02:14:41;34.60;;;15.90;;
10479;SDS011;12789;42.610;23.040;2024-03-06T02:17:07;27.47;;;16.67;;
10479;SDS011;12789;42.610;23.040;2024-03-06T02:19:39;30.83;;;17.93;;
10479;SDS011;12789;42.610;23.040;2024-03-06T02:22:07;40.20;;;24.30;;
10479;SDS011;12789;42.610;23.040;2024-03-06T02:24:34;51.40;;;31.33;;
10479;SDS011;12789;42.610;23.040;2024-03-06T02:27:01;52.83;;;32.67;;
10479;SDS011;12789;42.610;23.040;2024-03-06T02:29:30;44.57;;;27.97;;
10479;SDS011;12789;42.610;23.040;2024-03-06T02:31:57;41.80;;;22.43;;
10479;SDS011;12789;42.610;23.040;2024-03-06T02:34:24;31.30;;;20.00;;
10479;SDS011;12789;42.610;23.040;2024-03-06T02:36:50;27.33;;;18.07;;
10479;SDS011;12789;42.610;23.040;2024-03-06T02:39:18;28.90;;;18.30;;
10479;SDS011;12789;42.610;23.040;2024-03-06T02:41:46;34.10;;;17.77;;
10479;SDS011;12789;42.610;23.040;2024-03-06T02:44:12;33.00;;;19.97;;
10479;SDS011;12789;42.610;23.040;2024-03-06T02:46:39;36.93;;;19.67;;
10479;SDS011;12789;42.610;23.040;2024-03-06T02:49:06;29.47;;;19.07;;
10479;SDS011;12789;42.610;23.040;2024-03-06T02:51:32;32.03;;;19.53;;
10479;SDS011;12789;42.610;23.040;2024-03-06T02:53:59;29.67;;;20.37;;
10479;SDS011;12789;42.610;23.040;2024-03-06T02:56:26;41.60;;;19.33;;
10479;SDS011;12789;42.610;23.040;2024-03-06T02:58:53;32.73;;;20.73;;
10479;SDS011;12789;42.610;23.040;2024-03-06T03:01:20;38.00;;;21.80;;
10479;SDS011;12789;42.610;23.040;2024-03-06T03:03:46;42.80;;;23.37;;
10479;SDS011;12789;42.610;23.040;2024-03-06T03:06:13;45.90;;;23.87;;
10479;SDS011;12789;42.610;23.040;2024-03-06T03:08:40;52.47;;;24.87;;
10479;SDS011;12789;42.610;23.040;2024-03-06T03:11:06;42.30;;;21.57;;
10479;SDS011;12789;42.610;23.040;2024-03-06T03:13:34;41.90;;;22.67;;
10479;SDS011;12789;42.610;23.040;2024-03-06T03:16:01;41.73;;;23.97;;
10479;SDS011;12789;42.610;23.040;2024-03-06T03:18:29;36.97;;;19.47;;
10479;SDS011;12789;42.610;23.040;2024-03-06T03:20:55;42.20;;;18.10;;
10479;SDS011;12789;42.610;23.040;2024-03-06T03:23:22;36.43;;;17.87;;
10479;SDS011;12789;42.610;23.040;2024-03-06T03:25:48;36.87;;;18.00;;
10479;SDS011;12789;42.610;23.040;2024-03-06T03:28:15;40.10;;;17.83;;
10479;SDS011;12789;42.610;23.040;2024-03-06T03:30:43;37.77;;;18.03;;
10479;SDS011;12789;42.610;23.040;2024-03-06T03:33:10;42.07;;;18.63;;
10479;SDS011;12789;42.610;23.040;2024-03-06T03:35:37;35.17;;;17.87;;
10479;SDS011;12789;42.610;23.040;2024-03-06T03:38:04;35.40;;;18.13;;
10479;SDS011;12789;42.610;23.040;2024-03-06T03:40:30;35.60;;;17.93;;
10479;SDS011;12789;42.610;23.040;2024-03-06T03:42:58;36.87;;;17.53;;
10479;SDS011;12789;42.610;23.040;2024-03-06T03:45:24;33.43;;;18.70;;
10479;SDS011;12789;42.610;23.040;2024-03-06T03:47:52;47.40;;;19.70;;
10479;SDS011;12789;42.610;23.040;2024-03-06T03:50:18;37.90;;;18.70;;
10479;SDS011;12789;42.610;23.040;2024-03-06T03:52:45;36.73;;;19.10;;
10479;SDS011;12789;42.610;23.040;2024-03-06T03:55:12;32.77;;;18.60;;
10479;SDS011;12789;42.610;23.040;2024-03-06T03:57:38;39.43;;;18.47;;
10479;SDS011;12789;42.610;23.040;2024-03-06T04:00:06;32.90;;;18.53;;
10479;SDS011;12789;42.610;23.040;2024-03-06T04:02:36;39.23;;;19.83;;
10479;SDS011;12789;42.610;23.040;2024-03-06T04:05:04;34.93;;;19.67;;
10479;SDS011;12789;42.610;23.040;2024-03-06T04:07:30;37.63;;;20.10;;
10479;SDS011;12789;42.610;23.040;2024-03-06T04:09:57;39.67;;;20.70;;
10479;SDS011;12789;42.610;23.040;2024-03-06T04:12:24;38.93;;;18.43;;
10479;SDS011;12789;42.610;23.040;2024-03-06T04:14:50;33.67;;;16.37;;
10479;SDS011;12789;42.610;23.040;2024-03-06T04:17:17;36.23;;;17.17;;
10479;SDS011;12789;42.610;23.040;2024-03-06T04:19:43;33.73;;;18.13;;
10479;SDS011;12789;42.610;23.040;2024-03-06T04:22:11;40.67;;;20.03;;
10479;SDS011;12789;42.610;23.040;2024-03-06T04:24:40;42.93;;;19.07;;
10479;SDS011;12789;42.610;23.040;2024-03-06T04:27:07;40.53;;;18.77;;
10479;SDS011;12789;42.610;23.040;2024-03-06T04:29:34;43.47;;;18.53;;
10479;SDS011;12789;42.610;23.040;2024-03-06T04:32:00;37.83;;;20.27;;
10479;SDS011;12789;42.610;23.040;2024-03-06T04:34:27;38.13;;;20.13;;
10479;SDS011;12789;42.610;23.040;2024-03-06T04:36:54;37.33;;;21.20;;
10479;SDS011;12789;42.610;23.040;2024-03-06T04:39:22;48.60;;;22.07;;
10479;SDS011;12789;42.610;23.040;2024-03-06T04:41:48;36.97;;;18.63;;
10479;SDS011;12789;42.610;23.040;2024-03-06T04:44:15;34.53;;;16.80;;
10479;SDS011;12789;42.610;23.040;2024-03-06T04:46:42;35.47;;;18.60;;
10479;SDS011;12789;42.610;23.040;2024-03-06T04:49:08;36.33;;;17.13;;
10479;SDS011;12789;42.610;23.040;2024-03-06T04:51:35;31.70;;;16.90;;
10479;SDS011;12789;42.610;23.040;2024-03-06T04:54:01;29.70;;;15.50;;
10479;SDS011;12789;42.610;23.040;2024-03-06T04:56:30;28.67;;;16.23;;
10479;SDS011;12789;42.610;23.040;2024-03-06T04:58:56;26.20;;;15.87;;
10479;SDS011;12789;42.610;23.040;2024-03-06T05:01:27;32.37;;;16.10;;
10479;SDS011;12789;42.610;23.040;2024-03-06T05:03:54;34.27;;;15.20;;
10479;SDS011;12789;42.610;23.040;2024-03-06T05:06:21;29.57;;;15.40;;
10479;SDS011;12789;42.610;23.040;2024-03-06T05:08:48;35.73;;;16.63;;
10479;SDS011;12789;42.610;23.040;2024-03-06T05:11:14;37.70;;;16.90;;
10479;SDS011;12789;42.610;23.040;2024-03-06T05:13:42;39.93;;;17.13;;
10479;SDS011;12789;42.610;23.040;2024-03-06T05:16:09;28.63;;;16.83;;
10479;SDS011;12789;42.610;23.040;2024-03-06T05:18:35;34.10;;;19.70;;
10479;SDS011;12789;42.610;23.040;2024-03-06T05:21:02;38.57;;;19.03;;
10479;SDS011;12789;42.610;23.040;2024-03-06T05:23:29;45.50;;;19.13;;
10479;SDS011;12789;42.610;23.040;2024-03-06T05:25:55;38.13;;;20.47;;
10479;SDS011;12789;42.610;23.040;2024-03-06T05:28:22;40.27;;;21.57;;
10479;SDS011;12789;42.610;23.040;2024-03-06T05:30:50;44.90;;;22.27;;
10479;SDS011;12789;42.610;23.040;2024-03-06T05:33:16;45.70;;;24.13;;
10479;SDS011;12789;42.610;23.040;2024-03-06T05:35:43;58.53;;;25.80;;
10479;SDS011;12789;42.610;23.040;2024-03-06T05:38:09;50.67;;;27.07;;
10479;SDS011;12789;42.610;23.040;2024-03-06T05:40:36;62.47;;;30.33;;
10479;SDS011;12789;42.610;23.040;2024-03-06T05:43:05;63.37;;;25.73;;
10479;SDS011;12789;42.610;23.040;2024-03-06T05:45:32;50.10;;;22.03;;
10479;SDS011;12789;42.610;23.040;2024-03-06T05:48:00;51.37;;;22.23;;
10479;SDS011;12789;42.610;23.040;2024-03-06T05:50:29;49.17;;;19.80;;
10479;SDS011;12789;42.610;23.040;2024-03-06T05:52:55;46.67;;;19.40;;
10479;SDS011;12789;42.610;23.040;2024-03-06T05:55:22;54.23;;;26.27;;
10479;SDS011;12789;42.610;23.040;2024-03-06T05:57:48;58.57;;;27.00;;
10479;SDS011;12789;42.610;23.040;2024-03-06T06:00:15;50.33;;;24.80;;
10479;SDS011;12789;42.610;23.040;2024-03-06T06:02:43;64.40;;;26.37;;
10479;SDS011;12789;42.610;23.040;2024-03-06T06:05:12;158.00;;;69.80;;
10479;SDS011;12789;42.610;23.040;2024-03-06T06:07:38;101.63;;;41.87;;
10479;SDS011;12789;42.610;23.040;2024-03-06T06:10:05;84.40;;;31.60;;
10479;SDS011;12789;42.610;23.040;2024-03-06T06:12:35;86.93;;;30.57;;
10479;SDS011;12789;42.610;23.040;2024-03-06T06:15:01;67.87;;;27.10;;
10479;SDS011;12789;42.610;23.040;2024-03-06T06:17:28;70.70;;;25.37;;
10479;SDS011;12789;42.610;23.040;2024-03-06T06:19:54;67.43;;;26.23;;
10479;SDS011;12789;42.610;23.040;2024-03-06T06:22:22;82.00;;;28.87;;
10479;SDS011;12789;42.610;23.040;2024-03-06T06:24:49;76.47;;;28.40;;
10479;SDS011;12789;42.610;23.040;2024-03-06T06:27:16;67.57;;;25.10;;
10479;SDS011;12789;42.610;23.040;2024-03-06T06:29:43;49.67;;;23.70;;
10479;SDS011;12789;42.610;23.040;2024-03-06T06:32:09;46.33;;;24.07;;
10479;SDS011;12789;42.610;23.040;2024-03-06T06:34:36;58.80;;;24.53;;
10479;SDS011;12789;42.610;23.040;2024-03-06T06:37:02;51.17;;;24.07;;
10479;SDS011;12789;42.610;23.040;2024-03-06T06:39:30;55.17;;;23.60;;
10479;SDS011;12789;42.610;23.040;2024-03-06T06:41:59;61.70;;;30.33;;
10479;SDS011;12789;42.610;23.040;2024-03-06T06:44:26;64.23;;;28.83;;
10479;SDS011;12789;42.610;23.040;2024-03-06T06:46:52;53.53;;;23.17;;
10479;SDS011;12789;42.610;23.040;2024-03-06T06:49:19;48.93;;;23.70;;
10479;SDS011;12789;42.610;23.040;2024-03-06T06:51:45;56.40;;;25.67;;
10479;SDS011;12789;42.610;23.040;2024-03-06T06:54:14;60.50;;;24.37;;
10479;SDS011;12789;42.610;23.040;2024-03-06T06:56:42;52.33;;;23.67;;
10479;SDS011;12789;42.610;23.040;2024-03-06T06:59:08;48.07;;;24.00;;
10479;SDS011;12789;42.610;23.040;2024-03-06T07:01:35;55.40;;;23.60;;
10479;SDS011;12789;42.610;23.040;2024-03-06T07:04:01;58.73;;;25.13;;
10479;SDS011;12789;42.610;23.040;2024-03-06T07:06:28;57.40;;;23.77;;
10479;SDS011;12789;42.610;23.040;2024-03-06T07:08:55;62.13;;;25.57;;
10479;SDS011;12789;42.610;23.040;2024-03-06T07:11:21;66.27;;;25.90;;
10479;SDS011;12789;42.610;23.040;2024-03-06T07:13:50;52.27;;;25.07;;
10479;SDS011;12789;42.610;23.040;2024-03-06T07:16:16;53.60;;;26.50;;
10479;SDS011;12789;42.610;23.040;2024-03-06T07:18:44;67.73;;;28.17;;
10479;SDS011;12789;42.610;23.040;2024-03-06T07:21:11;58.17;;;26.20;;
10479;SDS011;12789;42.610;23.040;2024-03-06T07:23:38;87.33;;;40.50;;
10479;SDS011;12789;42.610;23.040;2024-03-06T07:26:05;62.63;;;27.73;;
10479;SDS011;12789;42.610;23.040;2024-03-06T07:28:31;61.13;;;24.63;;
10479;SDS011;12789;42.610;23.040;2024-03-06T07:30:59;58.23;;;25.37;;
10479;SDS011;12789;42.610;23.040;2024-03-06T07:33:26;60.47;;;25.97;;
10479;SDS011;12789;42.610;23.040;2024-03-06T07:35:52;58.30;;;26.80;;
10479;SDS011;12789;42.610;23.040;2024-03-06T07:38:19;56.60;;;25.40;;
10479;SDS011;12789;42.610;23.040;2024-03-06T07:40:46;58.77;;;26.40;;
10479;SDS011;12789;42.610;23.040;2024-03-06T07:43:13;49.13;;;24.40;;
10479;SDS011;12789;42.610;23.040;2024-03-06T07:45:39;50.97;;;22.77;;
10479;SDS011;12789;42.610;23.040;2024-03-06T07:48:07;43.77;;;21.53;;
10479;SDS011;12789;42.610;23.040;2024-03-06T07:50:34;48.43;;;23.77;;
10479;SDS011;12789;42.610;23.040;2024-03-06T07:53:01;37.07;;;19.57;;
10479;SDS011;12789;42.610;23.040;2024-03-06T07:55:28;35.53;;;18.93;;
10479;SDS011;12789;42.610;23.040;2024-03-06T07:57:55;36.43;;;18.83;;
10479;SDS011;12789;42.610;23.040;2024-03-06T08:00:21;50.13;;;26.33;;
10479;SDS011;12789;42.610;23.040;2024-03-06T08:02:48;71.53;;;40.17;;
10479;SDS011;12789;42.610;23.040;2024-03-06T08:05:16;46.33;;;20.83;;
10479;SDS011;12789;42.610;23.040;2024-03-06T08:07:43;28.23;;;16.03;;
10479;SDS011;12789;42.610;23.040;2024-03-06T08:10:11;46.93;;;18.07;;
10479;SDS011;12789;42.610;23.040;2024-03-06T08:12:39;43.47;;;24.73;;
10479;SDS011;12789;42.610;23.040;2024-03-06T08:15:07;59.23;;;33.57;;
10479;SDS011;12789;42.610;23.040;2024-03-06T08:17:36;61.50;;;32.50;;
10479;SDS011;12789;42.610;23.040;2024-03-06T08:20:03;42.60;;;21.23;;
10479;SDS011;12789;42.610;23.040;2024-03-06T08:22:34;43.17;;;21.67;;
10479;SDS011;12789;42.610;23.040;2024-03-06T08:25:04;45.00;;;23.23;;
10479;SDS011;12789;42.610;23.040;2024-03-06T08:27:30;34.57;;;18.73;;
10479;SDS011;12789;42.610;23.040;2024-03-06T08:29:57;38.07;;;19.23;;
10479;SDS011;12789;42.610;23.040;2024-03-06T08:32:23;41.87;;;19.03;;
10479;SDS011;12789;42.610;23.040;2024-03-06T08:34:50;38.50;;;17.07;;
10479;SDS011;12789;42.610;23.040;2024-03-06T08:37:17;32.37;;;16.47;;
10479;SDS011;12789;42.610;23.040;2024-03-06T08:39:44;33.83;;;16.33;;
10479;SDS011;12789;42.610;23.040;2024-03-06T08:42:11;29.90;;;14.87;;
10479;SDS011;12789;42.610;23.040;2024-03-06T08:44:39;32.07;;;16.37;;
10479;SDS011;12789;42.610;23.040;2024-03-06T08:47:05;36.77;;;18.90;;
10479;SDS011;12789;42.610;23.040;2024-03-06T08:49:32;32.80;;;16.23;;
10479;SDS011;12789;42.610;23.040;2024-03-06T08:51:59;28.80;;;14.50;;
10479;SDS011;12789;42.610;23.040;2024-03-06T08:54:26;27.17;;;14.43;;
10479;SDS011;12789;42.610;23.040;2024-03-06T08:56:54;24.73;;;13.20;;
10479;SDS011;12789;42.610;23.040;2024-03-06T08:59:23;30.83;;;13.53;;
10479;SDS011;12789;42.610;23.040;2024-03-06T09:01:51;21.93;;;12.43;;
10479;SDS011;12789;42.610;23.040;2024-03-06T09:04:19;20.37;;;12.10;;
10479;SDS011;12789;42.610;23.040;2024-03-06T09:06:45;19.07;;;12.40;;
10479;SDS011;12789;42.610;23.040;2024-03-06T09:09:12;23.27;;;11.57;;
10479;SDS011;12789;42.610;23.040;2024-03-06T09:11:40;20.77;;;9.97;;
10479;SDS011;12789;42.610;23.040;2024-03-06T09:14:08;17.07;;;10.60;;
10479;SDS011;12789;42.610;23.040;2024-03-06T09:16:35;21.37;;;13.07;;
10479;SDS011;12789;42.610;23.040;2024-03-06T09:19:02;19.25;;;11.23;;
10479;SDS011;12789;42.610;23.040;2024-03-06T09:21:28;16.17;;;9.00;;
10479;SDS011;12789;42.610;23.040;2024-03-06T09:23:55;14.30;;;9.20;;
10479;SDS011;12789;42.610;23.040;2024-03-06T09:26:21;12.23;;;7.82;;
10479;SDS011;12789;42.610;23.040;2024-03-06T09:28:48;11.93;;;7.77;;
10479;SDS011;12789;42.610;23.040;2024-03-06T09:31:17;15.02;;;8.20;;
10479;SDS011;12789;42.610;23.040;2024-03-06T09:33:43;15.68;;;8.05;;
10479;SDS011;12789;42.610;23.040;2024-03-06T09:36:11;11.23;;;7.50;;
10479;SDS011;12789;42.610;23.040;2024-03-06T09:38:39;25.95;;;8.55;;
10479;SDS011;12789;42.610;23.040;2024-03-06T09:41:06;9.80;;;7.38;;
10479;SDS011;12789;42.610;23.040;2024-03-06T09:43:33;10.18;;;6.07;;
10479;SDS011;12789;42.610;23.040;2024-03-06T09:46:00;13.77;;;7.85;;
10479;SDS011;12789;42.610;23.040;2024-03-06T09:48:29;9.73;;;7.20;;
10479;SDS011;12789;42.610;23.040;2024-03-06T09:50:57;10.80;;;7.47;;
10479;SDS011;12789;42.610;23.040;2024-03-06T09:53:26;11.43;;;6.93;;
10479;SDS011;12789;42.610;23.040;2024-03-06T09:55:53;12.18;;;6.97;;
10479;SDS011;12789;42.610;23.040;2024-03-06T09:58:20;6.72;;;5.93;;
10479;SDS011;12789;42.610;23.040;2024-03-06T10:00:47;9.35;;;6.00;;
10479;SDS011;12789;42.610;23.040;2024-03-06T10:03:14;8.10;;;6.60;;
10479;SDS011;12789;42.610;23.040;2024-03-06T10:05:42;7.78;;;6.38;;
10479;SDS011;12789;42.610;23.040;2024-03-06T10:08:09;7.00;;;5.50;;
10479;SDS011;12789;42.610;23.040;2024-03-06T10:10:35;11.60;;;6.03;;
10479;SDS011;12789;42.610;23.040;2024-03-06T10:13:02;8.60;;;6.10;;
10479;SDS011;12789;42.610;23.040;2024-03-06T10:15:28;7.43;;;6.18;;
10479;SDS011;12789;42.610;23.040;2024-03-06T10:18:11;8.65;;;6.15;;
10479;SDS011;12789;42.610;23.040;2024-03-06T10:20:38;8.00;;;5.60;;
10479;SDS011;12789;42.610;23.040;2024-03-06T10:23:06;10.02;;;6.13;;
10479;SDS011;12789;42.610;23.040;2024-03-06T10:25:34;16.40;;;5.90;;
10479;SDS011;12789;42.610;23.040;2024-03-06T10:28:06;9.90;;;5.75;;
10479;SDS011;12789;42.610;23.040;2024-03-06T10:30:33;9.02;;;5.57;;
10479;SDS011;12789;42.610;23.040;2024-03-06T10:33:01;10.98;;;5.78;;
10479;SDS011;12789;42.610;23.040;2024-03-06T10:35:28;8.20;;;5.72;;
10479;SDS011;12789;42.610;23.040;2024-03-06T10:37:54;9.05;;;5.90;;
10479;SDS011;12789;42.610;23.040;2024-03-06T10:40:23;8.23;;;5.43;;
10479;SDS011;12789;42.610;23.040;2024-03-06T10:42:49;10.65;;;5.80;;
10479;SDS011;12789;42.610;23.040;2024-03-06T10:45:16;6.10;;;4.88;;
10479;SDS011;12789;42.610;23.040;2024-03-06T10:47:45;5.95;;;5.00;;
10479;SDS011;12789;42.610;23.040;2024-03-06T10:50:12;5.35;;;4.85;;
10479;SDS011;12789;42.610;23.040;2024-03-06T10:52:40;7.30;;;4.80;;
10479;SDS011;12789;42.610;23.040;2024-03-06T10:55:07;6.40;;;4.97;;
10479;SDS011;12789;42.610;23.040;2024-03-06T10:57:37;8.95;;;4.30;;
10479;SDS011;12789;42.610;23.040;2024-03-06T11:00:04;7.22;;;4.82;;
10479;SDS011;12789;42.610;23.040;2024-03-06T11:02:32;4.50;;;4.10;;
10479;SDS011;12789;42.610;23.040;2024-03-06T11:05:00;5.20;;;3.83;;
10479;SDS011;12789;42.610;23.040;2024-03-06T11:07:30;9.75;;;4.70;;
10479;SDS011;12789;42.610;23.040;2024-03-06T11:09:58;7.68;;;5.20;;
10479;SDS011;12789;42.610;23.040;2024-03-06T11:12:35;8.00;;;4.63;;
10479;SDS011;12789;42.610;23.040;2024-03-06T11:15:09;10.30;;;5.30;;
10479;SDS011;12789;42.610;23.040;2024-03-06T11:17:36;7.53;;;4.97;;
10479;SDS011;12789;42.610;23.040;2024-03-06T11:20:16;6.65;;;4.07;;
10479;SDS011;12789;42.610;23.040;2024-03-06T11:23:02;13.00;;;4.68;;
10479;SDS011;12789;42.610;23.040;2024-03-06T11:28:19;9.45;;;5.60;;
10479;SDS011;12789;42.610;23.040;2024-03-06T11:30:47;7.43;;;5.13;;
10479;SDS011;12789;42.610;23.040;2024-03-06T11:33:14;17.73;;;5.70;;
10479;SDS011;12789;42.610;23.040;2024-03-06T11:35:42;8.77;;;5.13;;
10479;SDS011;12789;42.610;23.040;2024-03-06T11:38:16;10.60;;;5.25;;
10479;SDS011;12789;42.610;23.040;2024-03-06T11:40:42;5.90;;;4.70;;
10479;SDS011;12789;42.610;23.040;2024-03-06T11:43:22;9.80;;;5.10;;
10479;SDS011;12789;42.610;23.040;2024-03-06T11:45:50;8.13;;;4.95;;
10479;SDS011;12789;42.610;23.040;2024-03-06T11:48:17;5.95;;;5.20;;
10479;SDS011;12789;42.610;23.040;2024-03-06T11:50:46;5.65;;;4.65;;
10479;SDS011;12789;42.610;23.040;2024-03-06T11:53:13;7.15;;;4.93;;
10479;SDS011;12789;42.610;23.040;2024-03-06T11:55:41;9.65;;;5.10;;
10479;SDS011;12789;42.610;23.040;2024-03-06T11:58:08;13.15;;;5.30;;
10479;SDS011;12789;42.610;23.040;2024-03-06T12:00:37;7.78;;;4.40;;
10479;SDS011;12789;42.610;23.040;2024-03-06T12:03:05;7.65;;;4.53;;
10479;SDS011;12789;42.610;23.040;2024-03-06T12:05:31;9.13;;;4.60;;
10479;SDS011;12789;42.610;23.040;2024-03-06T12:07:58;8.15;;;4.28;;
10479;SDS011;12789;42.610;23.040;2024-03-06T12:10:25;6.53;;;4.15;;
10479;SDS011;12789;42.610;23.040;2024-03-06T12:12:51;6.53;;;4.63;;
10479;SDS011;12789;42.610;23.040;2024-03-06T12:15:18;7.13;;;4.80;;
10479;SDS011;12789;42.610;23.040;2024-03-06T12:17:46;12.38;;;4.57;;
10479;SDS011;12789;42.610;23.040;2024-03-06T12:20:15;5.97;;;4.03;;
10479;SDS011;12789;42.610;23.040;2024-03-06T12:22:44;10.82;;;4.22;;
10479;SDS011;12789;42.610;23.040;2024-03-06T12:25:17;7.80;;;4.03;;
10479;SDS011;12789;42.610;23.040;2024-03-06T12:27:44;8.45;;;4.20;;
10479;SDS011;12789;42.610;23.040;2024-03-06T12:30:11;7.20;;;4.63;;
10479;SDS011;12789;42.610;23.040;2024-03-06T12:32:38;7.10;;;3.78;;
10479;SDS011;12789;42.610;23.040;2024-03-06T12:35:05;6.90;;;4.22;;
10479;SDS011;12789;42.610;23.040;2024-03-06T12:37:33;12.07;;;7.45;;
10479;SDS011;12789;42.610;23.040;2024-03-06T12:39:59;7.13;;;4.75;;
10479;SDS011;12789;42.610;23.040;2024-03-06T12:42:26;6.88;;;4.47;;
10479;SDS011;12789;42.610;23.040;2024-03-06T12:44:53;4.63;;;4.22;;
10479;SDS011;12789;42.610;23.040;2024-03-06T12:47:20;9.52;;;4.50;;
10479;SDS011;12789;42.610;23.040;2024-03-06T12:49:47;6.07;;;4.97;;
10479;SDS011;12789;42.610;23.040;2024-03-06T12:52:14;5.32;;;4.28;;
10479;SDS011;12789;42.610;23.040;2024-03-06T12:54:42;12.75;;;5.72;;
10479;SDS011;12789;42.610;23.040;2024-03-06T12:57:08;11.63;;;7.63;;
10479;SDS011;12789;42.610;23.040;2024-03-06T12:59:35;15.13;;;8.25;;
10479;SDS011;12789;42.610;23.040;2024-03-06T13:02:01;34.45;;;18.77;;
10479;SDS011;12789;42.610;23.040;2024-03-06T13:04:28;19.17;;;10.80;;
10479;SDS011;12789;42.610;23.040;2024-03-06T13:06:54;7.18;;;5.25;;
10479;SDS011;12789;42.610;23.040;2024-03-06T13:09:21;13.57;;;8.40;;
10479;SDS011;12789;42.610;23.040;2024-03-06T13:11:49;17.08;;;10.18;;
10479;SDS011;12789;42.610;23.040;2024-03-06T13:14:16;12.20;;;7.93;;
10479;SDS011;12789;42.610;23.040;2024-03-06T13:16:42;8.55;;;6.22;;
10479;SDS011;12789;42.610;23.040;2024-03-06T13:19:09;11.15;;;7.45;;
10479;SDS011;12789;42.610;23.040;2024-03-06T13:21:36;10.30;;;7.50;;
10479;SDS011;12789;42.610;23.040;2024-03-06T13:24:03;10.40;;;6.15;;
10479;SDS011;12789;42.610;23.040;2024-03-06T13:26:29;6.28;;;5.63;;
10479;SDS011;12789;42.610;23.040;2024-03-06T13:28:57;7.05;;;5.03;;
10479;SDS011;12789;42.610;23.040;2024-03-06T13:31:24;9.20;;;5.25;;
10479;SDS011;12789;42.610;23.040;2024-03-06T13:33:51;7.20;;;6.13;;
10479;SDS011;12789;42.610;23.040;2024-03-06T13:36:18;6.68;;;5.82;;
10479;SDS011;12789;42.610;23.040;2024-03-06T13:38:45;6.40;;;5.13;;
10479;SDS011;12789;42.610;23.040;2024-03-06T13:41:12;8.27;;;6.32;;
10479;SDS011;12789;42.610;23.040;2024-03-06T13:43:39;6.95;;;5.30;;
10479;SDS011;12789;42.610;23.040;2024-03-06T13:46:07;10.95;;;7.45;;
10479;SDS011;12789;42.610;23.040;2024-03-06T13:48:33;12.07;;;8.63;;
10479;SDS011;12789;42.610;23.040;2024-03-06T13:51:01;12.25;;;8.40;;
10479;SDS011;12789;42.610;23.040;2024-03-06T13:53:27;17.90;;;9.38;;
10479;SDS011;12789;42.610;23.040;2024-03-06T13:55:54;7.75;;;7.00;;
10479;SDS011;12789;42.610;23.040;2024-03-06T13:58:20;12.48;;;6.63;;
10479;SDS011;12789;42.610;23.040;2024-03-06T14:00:47;11.45;;;6.15;;
10479;SDS011;12789;42.610;23.040;2024-03-06T14:03:15;8.17;;;6.57;;
10479;SDS011;12789;42.610;23.040;2024-03-06T14:05:42;10.10;;;7.90;;
10479;SDS011;12789;42.610;23.040;2024-03-06T14:08:08;14.93;;;8.73;;
10479;SDS011;12789;42.610;23.040;2024-03-06T14:10:37;10.83;;;8.17;;
10479;SDS011;12789;42.610;23.040;2024-03-06T14:13:04;12.43;;;9.47;;
10479;SDS011;12789;42.610;23.040;2024-03-06T14:15:32;8.43;;;7.50;;
10479;SDS011;12789;42.610;23.040;2024-03-06T14:17:58;9.03;;;7.23;;
10479;SDS011;12789;42.610;23.040;2024-03-06T14:20:28;10.63;;;7.40;;